Granby, Colorado
Current Conditions -  °F | °C
As of 10:10 PM on Wednesday 22 Oct 2014 (Local Time) from K0CO Reporting Station
Scattered Clouds Scattered Clouds  
Wind Chill: 12°   Ceiling: Unl
Heat Index: 27°   Visibility: 10mi
Dew Point: 23°   Wind: 22mph
Humidity: 86%   Direction: 290°WNW
Pressure: 30.45"   Gusts: 29mph
Location:  40.09°N, 105.94°W
Report Text: K0CO 230410Z AUTO 29019G25KT 10SM SCT009 SCT013 SCT018 M03/M05 A3045 RMK AO2
Loading
Personal Weather Stations






























Interactive Weather Map New forecast layout! Learn more

10-Day Weather Forecast

Advertisements
Track Severe Weather on mobile